logo
Search for airport 
image banner adimage banner adimage banner ad
image banner ad

ED1433 - Schnaithalde

Located in , Germany

ICAO - , IATA -

Data provided by Airmate  

General information

Coordinates: N48°17'34" E9°2'56"
Elevation is 2690 feet MSL.
 
View others Airports in Baden-Württemberg

Operational data

Special qualification required
Current time UTC:
Current local time:
Weather at : EDDS - Stuttgart ( 46 km )
METAR: EDDS 171350Z AUTO 36005KT 310V070 CAVOK 24/12 Q1022 NOSIG
TAF: TAF EDDS 171100Z 1712/1812 35004KT 9999 BKN040 BECMG 1804/1807 07005KT
View NOTAMs / SUP AIP / TFR affecting this airport [VIEW]
Communications frequencies: [VIEW]

Runways:

Airport contact information

Address: Germany

Satellite view of ED1433